createdAt,value
2023-05-24T00:13:10.959Z,2.90
2023-05-24T00:28:20.905Z,3.27
2023-05-24T00:43:27.613Z,3.80
2023-05-24T00:58:35.968Z,2.87
2023-05-24T01:14:02.920Z,2.60
2023-05-24T01:29:15.432Z,3.23
2023-05-24T02:19:39.273Z,2.47
2023-05-24T02:34:43.549Z,2.77
2023-05-24T02:49:48.873Z,2.60
2023-05-24T03:56:58.135Z,2.83
2023-05-24T04:29:26.791Z,3.00
2023-05-24T06:13:22.770Z,4.67
2023-05-24T06:44:09.135Z,4.40
2023-05-24T06:59:16.727Z,3.80
2023-05-24T07:14:25.137Z,4.23
2023-05-24T07:29:28.750Z,4.43
2023-05-24T07:44:32.789Z,4.50
2023-05-24T07:59:35.573Z,5.23
2023-05-24T08:14:38.312Z,5.37
2023-05-24T08:29:41.660Z,4.57
2023-05-24T08:44:58.533Z,4.37
2023-05-24T09:00:01.749Z,4.23
2023-05-24T09:15:05.414Z,4.17
2023-05-24T09:30:12.419Z,3.60
2023-05-24T09:45:15.204Z,4.47
2023-05-24T10:00:27.526Z,4.97
2023-05-24T10:15:30.960Z,3.70
2023-05-24T10:30:48.362Z,4.20
2023-05-24T10:45:53.160Z,4.63
2023-05-24T11:00:56.105Z,4.73
2023-05-24T11:15:59.804Z,4.97
2023-05-24T11:31:09.670Z,4.20
2023-05-24T11:46:15.139Z,4.50
2023-05-24T12:01:28.379Z,4.03
2023-05-24T12:16:33.167Z,4.80
2023-05-24T12:31:37.552Z,5.27
2023-05-24T12:46:41.572Z,3.83
2023-05-24T13:01:47.195Z,4.60
2023-05-24T13:16:51.147Z,3.67
2023-05-24T13:31:54.376Z,4.30
2023-05-24T13:46:57.309Z,4.07
2023-05-24T14:02:00.395Z,3.83
2023-05-24T14:17:03.363Z,3.50
2023-05-24T14:32:06.691Z,3.10
2023-05-24T14:47:09.496Z,3.17
2023-05-24T15:02:17.721Z,3.57
2023-05-24T15:17:22.109Z,3.50
2023-05-24T15:32:27.650Z,4.13
2023-05-24T15:47:36.554Z,3.60
2023-05-24T16:02:43.553Z,3.33
2023-05-24T16:17:48.918Z,3.67
2023-05-24T16:32:52.024Z,4.03
2023-05-24T16:47:54.754Z,3.47
2023-05-24T17:02:59.293Z,2.93
2023-05-24T17:18:01.872Z,3.00
2023-05-24T17:33:04.348Z,3.20
2023-05-24T17:48:08.806Z,3.03
2023-05-24T18:03:13.021Z,3.33
2023-05-24T18:18:16.450Z,3.57
2023-05-24T18:33:18.990Z,3.90
2023-05-24T18:48:22.719Z,4.60
2023-05-24T19:03:26.382Z,4.80
2023-05-24T19:18:29.330Z,5.43
2023-05-24T19:33:33.924Z,5.00
2023-05-24T19:48:37.016Z,5.50
2023-05-24T20:03:40.956Z,4.73
2023-05-24T20:18:43.853Z,4.40
2023-05-24T20:33:46.802Z,5.33
2023-05-24T20:48:50.968Z,4.80
2023-05-24T21:03:53.579Z,4.57
2023-05-24T21:18:56.814Z,4.30
2023-05-24T21:33:59.541Z,4.43
2023-05-24T21:49:02.790Z,4.87
2023-05-24T22:04:05.946Z,5.17
2023-05-24T22:19:16.422Z,4.63
2023-05-24T22:34:27.655Z,4.93
2023-05-24T22:49:34.154Z,5.30
2023-05-24T23:04:38.905Z,5.80
2023-05-24T23:19:46.552Z,5.30
2023-05-24T23:34:53.664Z,5.20
2023-05-24T23:49:56.082Z,5.67
